sensor_id;sensor_type;location;lat;lon;timestamp;pressure;altitude;pressure_sealevel;temperature;humidity
49515;BME280;35415;47.870;16.058;2024-01-07T00:01:55;96209.38;;;3.38;100.00
49515;BME280;35415;47.870;16.058;2024-01-07T00:04:22;96201.50;;;3.26;100.00
49515;BME280;35415;47.870;16.058;2024-01-07T00:06:51;96172.13;;;3.16;100.00
49515;BME280;35415;47.870;16.058;2024-01-07T00:09:19;96203.00;;;3.39;100.00
49515;BME280;35415;47.870;16.058;2024-01-07T00:11:47;96178.19;;;3.11;100.00
49515;BME280;35415;47.870;16.058;2024-01-07T00:14:15;96169.97;;;3.13;100.00
49515;BME280;35415;47.870;16.058;2024-01-07T00:16:43;96181.97;;;3.15;100.00
49515;BME280;35415;47.870;16.058;2024-01-07T00:19:10;96225.31;;;3.38;100.00
49515;BME280;35415;47.870;16.058;2024-01-07T00:21:38;96169.03;;;3.02;100.00
49515;BME280;35415;47.870;16.058;2024-01-07T00:24:06;96214.44;;;3.39;100.00
49515;BME280;35415;47.870;16.058;2024-01-07T00:26:33;96221.34;;;3.40;100.00
49515;BME280;35415;47.870;16.058;2024-01-07T00:29:01;96221.09;;;3.42;100.00
49515;BME280;35415;47.870;16.058;2024-01-07T00:31:28;96208.72;;;3.30;100.00
49515;BME280;35415;47.870;16.058;2024-01-07T00:33:56;96217.09;;;3.39;100.00
49515;BME280;35415;47.870;16.058;2024-01-07T00:36:24;96212.81;;;3.38;100.00
49515;BME280;35415;47.870;16.058;2024-01-07T00:38:51;96192.97;;;3.24;100.00
49515;BME280;35415;47.870;16.058;2024-01-07T00:41:20;96162.19;;;3.06;100.00
49515;BME280;35415;47.870;16.058;2024-01-07T00:43:48;96219.19;;;3.37;100.00
49515;BME280;35415;47.870;16.058;2024-01-07T00:46:15;96206.06;;;3.30;100.00
49515;BME280;35415;47.870;16.058;2024-01-07T00:48:43;96218.41;;;3.37;100.00
49515;BME280;35415;47.870;16.058;2024-01-07T00:51:10;96219.41;;;3.36;100.00
49515;BME280;35415;47.870;16.058;2024-01-07T00:53:38;96207.31;;;3.23;100.00
49515;BME280;35415;47.870;16.058;2024-01-07T00:56:06;96219.59;;;3.29;100.00
49515;BME280;35415;47.870;16.058;2024-01-07T00:58:36;96211.44;;;3.14;100.00
49515;BME280;35415;47.870;16.058;2024-01-07T01:01:03;96230.00;;;3.30;100.00
49515;BME280;35415;47.870;16.058;2024-01-07T01:03:31;96235.63;;;3.34;100.00
49515;BME280;35415;47.870;16.058;2024-01-07T01:05:58;96206.50;;;3.22;100.00
49515;BME280;35415;47.870;16.058;2024-01-07T01:08:26;96236.41;;;3.35;100.00
49515;BME280;35415;47.870;16.058;2024-01-07T01:10:53;96185.31;;;3.06;100.00
49515;BME280;35415;47.870;16.058;2024-01-07T01:13:21;96239.88;;;3.35;100.00
49515;BME280;35415;47.870;16.058;2024-01-07T01:15:50;96194.09;;;3.06;100.00
49515;BME280;35415;47.870;16.058;2024-01-07T01:18:18;96242.78;;;3.33;100.00
49515;BME280;35415;47.870;16.058;2024-01-07T01:20:45;96185.22;;;3.00;100.00
49515;BME280;35415;47.870;16.058;2024-01-07T01:23:13;96191.72;;;3.10;100.00
49515;BME280;35415;47.870;16.058;2024-01-07T01:25:40;96177.75;;;2.97;100.00
49515;BME280;35415;47.870;16.058;2024-01-07T01:28:09;96190.13;;;3.09;100.00
49515;BME280;35415;47.870;16.058;2024-01-07T01:30:37;96224.44;;;3.32;100.00
49515;BME280;35415;47.870;16.058;2024-01-07T01:33:06;96187.16;;;3.05;100.00
49515;BME280;35415;47.870;16.058;2024-01-07T01:35:33;96194.94;;;3.12;100.00
49515;BME280;35415;47.870;16.058;2024-01-07T01:38:01;96227.09;;;3.32;100.00
49515;BME280;35415;47.870;16.058;2024-01-07T01:40:28;96239.00;;;3.29;100.00
49515;BME280;35415;47.870;16.058;2024-01-07T01:42:57;96232.91;;;3.29;100.00
49515;BME280;35415;47.870;16.058;2024-01-07T01:45:24;96229.94;;;3.25;100.00
49515;BME280;35415;47.870;16.058;2024-01-07T01:47:51;96224.13;;;3.28;100.00
49515;BME280;35415;47.870;16.058;2024-01-07T01:50:21;96230.00;;;3.30;100.00
49515;BME280;35415;47.870;16.058;2024-01-07T01:52:49;96222.28;;;3.29;100.00
49515;BME280;35415;47.870;16.058;2024-01-07T01:55:17;96225.97;;;3.28;100.00
49515;BME280;35415;47.870;16.058;2024-01-07T01:57:46;96199.31;;;3.01;100.00
49515;BME280;35415;47.870;16.058;2024-01-07T02:00:15;96221.91;;;3.20;100.00
49515;BME280;35415;47.870;16.058;2024-01-07T02:02:43;96214.09;;;3.14;100.00
49515;BME280;35415;47.870;16.058;2024-01-07T02:05:10;96219.16;;;3.15;100.00
49515;BME280;35415;47.870;16.058;2024-01-07T02:07:41;96219.59;;;3.07;100.00
49515;BME280;35415;47.870;16.058;2024-01-07T02:10:08;96239.47;;;3.21;100.00
49515;BME280;35415;47.870;16.058;2024-01-07T02:12:36;96235.19;;;3.20;100.00
49515;BME280;35415;47.870;16.058;2024-01-07T02:15:04;96206.03;;;2.87;100.00
49515;BME280;35415;47.870;16.058;2024-01-07T02:17:32;96200.47;;;2.88;100.00
49515;BME280;35415;47.870;16.058;2024-01-07T02:20:00;96214.38;;;2.95;100.00
49515;BME280;35415;47.870;16.058;2024-01-07T02:22:27;96210.94;;;2.95;100.00
49515;BME280;35415;47.870;16.058;2024-01-07T02:24:56;96219.06;;;2.88;100.00
49515;BME280;35415;47.870;16.058;2024-01-07T02:27:24;96218.03;;;2.89;100.00
49515;BME280;35415;47.870;16.058;2024-01-07T02:29:52;96247.84;;;3.13;100.00
49515;BME280;35415;47.870;16.058;2024-01-07T02:32:19;96184.72;;;2.65;100.00
49515;BME280;35415;47.870;16.058;2024-01-07T02:34:47;96253.66;;;3.10;100.00
49515;BME280;35415;47.870;16.058;2024-01-07T02:37:14;96215.88;;;2.86;100.00
49515;BME280;35415;47.870;16.058;2024-01-07T02:39:42;96237.97;;;2.92;100.00
49515;BME280;35415;47.870;16.058;2024-01-07T02:42:12;96273.22;;;3.04;100.00
49515;BME280;35415;47.870;16.058;2024-01-07T02:44:39;96264.66;;;3.02;100.00
49515;BME280;35415;47.870;16.058;2024-01-07T02:47:07;96231.94;;;2.80;100.00
49515;BME280;35415;47.870;16.058;2024-01-07T02:49:34;96267.81;;;2.99;100.00
49515;BME280;35415;47.870;16.058;2024-01-07T02:52:02;96272.56;;;2.97;100.00
49515;BME280;35415;47.870;16.058;2024-01-07T02:54:29;96251.75;;;2.89;100.00
49515;BME280;35415;47.870;16.058;2024-01-07T02:56:57;96257.94;;;2.94;100.00
49515;BME280;35415;47.870;16.058;2024-01-07T02:59:25;96261.63;;;2.93;100.00
49515;BME280;35415;47.870;16.058;2024-01-07T03:01:53;96268.25;;;2.91;100.00
49515;BME280;35415;47.870;16.058;2024-01-07T03:04:21;96208.50;;;2.55;100.00
49515;BME280;35415;47.870;16.058;2024-01-07T03:06:48;96268.88;;;2.81;100.00
49515;BME280;35415;47.870;16.058;2024-01-07T03:09:16;96262.47;;;2.77;100.00
49515;BME280;35415;47.870;16.058;2024-01-07T03:11:43;96257.16;;;2.77;100.00
49515;BME280;35415;47.870;16.058;2024-01-07T03:14:10;96258.44;;;2.75;100.00
49515;BME280;35415;47.870;16.058;2024-01-07T03:16:40;96256.16;;;2.66;100.00
49515;BME280;35415;47.870;16.058;2024-01-07T03:19:07;96204.47;;;2.35;100.00
49515;BME280;35415;47.870;16.058;2024-01-07T03:21:35;96249.00;;;2.67;100.00
49515;BME280;35415;47.870;16.058;2024-01-07T03:24:02;96221.59;;;2.45;100.00
49515;BME280;35415;47.870;16.058;2024-01-07T03:26:30;96240.97;;;2.62;100.00
49515;BME280;35415;47.870;16.058;2024-01-07T03:28:59;96207.34;;;2.34;100.00
49515;BME280;35415;47.870;16.058;2024-01-07T03:31:28;96250.97;;;2.55;100.00
49515;BME280;35415;47.870;16.058;2024-01-07T03:33:57;96229.88;;;2.31;100.00
49515;BME280;35415;47.870;16.058;2024-01-07T03:36:25;96257.78;;;2.51;100.00
49515;BME280;35415;47.870;16.058;2024-01-07T03:38:52;96220.47;;;2.24;100.00
49515;BME280;35415;47.870;16.058;2024-01-07T03:41:20;96248.13;;;2.45;100.00
49515;BME280;35415;47.870;16.058;2024-01-07T03:43:49;96256.34;;;2.43;100.00
49515;BME280;35415;47.870;16.058;2024-01-07T03:46:16;96231.06;;;2.24;100.00
49515;BME280;35415;47.870;16.058;2024-01-07T03:48:44;96264.31;;;2.43;100.00
49515;BME280;35415;47.870;16.058;2024-01-07T03:51:13;96236.47;;;2.29;100.00
49515;BME280;35415;47.870;16.058;2024-01-07T03:53:41;96265.59;;;2.40;100.00
49515;BME280;35415;47.870;16.058;2024-01-07T03:56:09;96244.66;;;2.27;100.00
49515;BME280;35415;47.870;16.058;2024-01-07T03:58:36;96271.69;;;2.41;100.00
49515;BME280;35415;47.870;16.058;2024-01-07T04:01:04;96270.34;;;2.38;100.00
49515;BME280;35415;47.870;16.058;2024-01-07T04:03:32;96228.97;;;2.09;100.00
49515;BME280;35415;47.870;16.058;2024-01-07T04:05:59;96274.09;;;2.26;100.00
49515;BME280;35415;47.870;16.058;2024-01-07T04:08:28;96246.16;;;2.06;100.00
49515;BME280;35415;47.870;16.058;2024-01-07T04:10:56;96237.94;;;1.91;100.00
49515;BME280;35415;47.870;16.058;2024-01-07T04:13:24;96287.59;;;2.24;100.00
49515;BME280;35415;47.870;16.058;2024-01-07T04:15:51;96286.56;;;2.25;100.00
49515;BME280;35415;47.870;16.058;2024-01-07T04:18:19;96282.34;;;2.13;100.00
49515;BME280;35415;47.870;16.058;2024-01-07T04:20:46;96288.69;;;2.11;100.00
49515;BME280;35415;47.870;16.058;2024-01-07T04:23:14;96300.53;;;2.21;100.00
49515;BME280;35415;47.870;16.058;2024-01-07T04:25:43;96247.97;;;1.89;100.00
49515;BME280;35415;47.870;16.058;2024-01-07T04:28:11;96250.88;;;1.88;100.00
49515;BME280;35415;47.870;16.058;2024-01-07T04:30:38;96298.59;;;2.16;100.00
49515;BME280;35415;47.870;16.058;2024-01-07T04:33:06;96311.19;;;2.09;100.00
49515;BME280;35415;47.870;16.058;2024-01-07T04:35:33;96310.47;;;2.14;100.00
49515;BME280;35415;47.870;16.058;2024-01-07T04:38:01;96246.31;;;1.71;100.00
49515;BME280;35415;47.870;16.058;2024-01-07T04:40:29;96318.59;;;2.07;100.00
49515;BME280;35415;47.870;16.058;2024-01-07T04:42:58;96270.91;;;1.84;100.00
49515;BME280;35415;47.870;16.058;2024-01-07T04:45:25;96321.00;;;2.08;100.00
49515;BME280;35415;47.870;16.058;2024-01-07T04:47:53;96235.91;;;1.53;100.00
49515;BME280;35415;47.870;16.058;2024-01-07T04:50:21;96317.22;;;2.04;100.00
49515;BME280;35415;47.870;16.058;2024-01-07T04:52:49;96314.56;;;2.04;100.00
49515;BME280;35415;47.870;16.058;2024-01-07T04:55:16;96282.72;;;1.76;100.00
49515;BME280;35415;47.870;16.058;2024-01-07T04:57:44;96333.72;;;1.95;100.00
49515;BME280;35415;47.870;16.058;2024-01-07T05:00:14;96332.34;;;1.92;100.00
49515;BME280;35415;47.870;16.058;2024-01-07T05:02:42;96319.34;;;1.91;100.00
49515;BME280;35415;47.870;16.058;2024-01-07T05:05:09;96336.84;;;1.92;100.00
49515;BME280;35415;47.870;16.058;2024-01-07T05:07:37;96337.31;;;1.89;100.00
49515;BME280;35415;47.870;16.058;2024-01-07T05:10:06;96339.41;;;1.87;100.00
49515;BME280;35415;47.870;16.058;2024-01-07T05:12:34;96298.56;;;1.59;99.81
49515;BME280;35415;47.870;16.058;2024-01-07T05:15:01;96308.69;;;1.62;100.00
49515;BME280;35415;47.870;16.058;2024-01-07T05:17:30;96314.00;;;1.50;100.00
49515;BME280;35415;47.870;16.058;2024-01-07T05:19:58;96306.03;;;1.50;100.00
49515;BME280;35415;47.870;16.058;2024-01-07T05:22:25;96292.84;;;1.39;100.00
49515;BME280;35415;47.870;16.058;2024-01-07T05:24:53;96320.09;;;1.51;100.00
49515;BME280;35415;47.870;16.058;2024-01-07T05:27:20;96339.56;;;1.68;100.00
49515;BME280;35415;47.870;16.058;2024-01-07T05:29:47;96304.00;;;1.41;100.00
49515;BME280;35415;47.870;16.058;2024-01-07T05:32:15;96346.84;;;1.61;100.00
49515;BME280;35415;47.870;16.058;2024-01-07T05:34:44;96293.97;;;1.31;100.00
49515;BME280;35415;47.870;16.058;2024-01-07T05:37:11;96315.41;;;1.41;100.00
49515;BME280;35415;47.870;16.058;2024-01-07T05:39:39;96345.78;;;1.62;100.00
49515;BME280;35415;47.870;16.058;2024-01-07T05:42:07;96349.47;;;1.61;100.00
49515;BME280;35415;47.870;16.058;2024-01-07T05:44:34;96356.38;;;1.62;100.00
49515;BME280;35415;47.870;16.058;2024-01-07T05:47:02;96367.94;;;1.56;100.00
49515;BME280;35415;47.870;16.058;2024-01-07T05:49:30;96341.66;;;1.43;100.00
49515;BME280;35415;47.870;16.058;2024-01-07T05:51:59;96356.28;;;1.57;100.00
49515;BME280;35415;47.870;16.058;2024-01-07T05:54:26;96355.97;;;1.54;100.00
49515;BME280;35415;47.870;16.058;2024-01-07T05:56:53;96359.84;;;1.51;100.00
49515;BME280;35415;47.870;16.058;2024-01-07T05:59:21;96300.22;;;1.13;100.00
49515;BME280;35415;47.870;16.058;2024-01-07T06:01:48;96316.34;;;1.24;100.00
49515;BME280;35415;47.870;16.058;2024-01-07T06:04:16;96295.28;;;0.94;99.82
49515;BME280;35415;47.870;16.058;2024-01-07T06:06:43;96378.41;;;1.51;99.57
49515;BME280;35415;47.870;16.058;2024-01-07T06:09:12;96388.91;;;1.46;100.00
49515;BME280;35415;47.870;16.058;2024-01-07T06:11:40;96384.88;;;1.43;100.00
49515;BME280;35415;47.870;16.058;2024-01-07T06:14:07;96356.56;;;1.20;100.00
49515;BME280;35415;47.870;16.058;2024-01-07T06:16:35;96352.53;;;1.18;100.00
49515;BME280;35415;47.870;16.058;2024-01-07T06:19:02;96409.75;;;1.42;100.00
49515;BME280;35415;47.870;16.058;2024-01-07T06:21:30;96400.44;;;1.40;99.60
49515;BME280;35415;47.870;16.058;2024-01-07T06:23:57;96389.94;;;1.33;99.70
49515;BME280;35415;47.870;16.058;2024-01-07T06:26:26;96349.88;;;1.06;99.21
49515;BME280;35415;47.870;16.058;2024-01-07T06:28:54;96386.72;;;1.31;99.11
49515;BME280;35415;47.870;16.058;2024-01-07T06:31:21;96391.53;;;1.34;99.05
49515;BME280;35415;47.870;16.058;2024-01-07T06:33:48;96339.47;;;0.93;99.65
49515;BME280;35415;47.870;16.058;2024-01-07T06:36:16;96401.81;;;1.31;98.84
49515;BME280;35415;47.870;16.058;2024-01-07T06:38:43;96424.03;;;1.30;100.00
49515;BME280;35415;47.870;16.058;2024-01-07T06:41:11;96401.47;;;1.27;100.00
49515;BME280;35415;47.870;16.058;2024-01-07T06:43:40;96380.63;;;1.19;99.36
49515;BME280;35415;47.870;16.058;2024-01-07T06:46:08;96351.69;;;0.94;99.00
49515;BME280;35415;47.870;16.058;2024-01-07T06:48:36;96392.25;;;1.18;99.54
49515;BME280;35415;47.870;16.058;2024-01-07T06:51:04;96379.47;;;1.03;99.81
49515;BME280;35415;47.870;16.058;2024-01-07T06:53:31;96411.94;;;1.22;100.00
49515;BME280;35415;47.870;16.058;2024-01-07T06:55:59;96377.81;;;0.90;100.00
49515;BME280;35415;47.870;16.058;2024-01-07T06:58:26;96411.38;;;1.20;100.00
49515;BME280;35415;47.870;16.058;2024-01-07T07:00:55;96384.97;;;1.02;100.00
49515;BME280;35415;47.870;16.058;2024-01-07T07:03:23;96411.13;;;1.10;100.00
49515;BME280;35415;47.870;16.058;2024-01-07T07:05:51;96425.84;;;1.17;100.00
49515;BME280;35415;47.870;16.058;2024-01-07T07:08:18;96423.78;;;1.08;100.00
49515;BME280;35415;47.870;16.058;2024-01-07T07:10:46;96398.28;;;0.83;100.00
49515;BME280;35415;47.870;16.058;2024-01-07T07:13:13;96436.44;;;1.06;100.00
49515;BME280;35415;47.870;16.058;2024-01-07T07:15:41;96453.50;;;1.10;100.00
49515;BME280;35415;47.870;16.058;2024-01-07T07:18:10;96441.81;;;0.99;100.00
49515;BME280;35415;47.870;16.058;2024-01-07T07:20:38;96420.94;;;0.79;100.00
49515;BME280;35415;47.870;16.058;2024-01-07T07:23:05;96452.19;;;1.01;100.00
49515;BME280;35415;47.870;16.058;2024-01-07T07:25:33;96423.25;;;0.76;100.00
49515;BME280;35415;47.870;16.058;2024-01-07T07:28:00;96399.50;;;0.57;100.00
49515;BME280;35415;47.870;16.058;2024-01-07T07:30:27;96429.44;;;0.70;100.00
49515;BME280;35415;47.870;16.058;2024-01-07T07:32:55;96463.69;;;0.95;100.00
49515;BME280;35415;47.870;16.058;2024-01-07T07:35:24;96463.69;;;0.95;100.00
49515;BME280;35415;47.870;16.058;2024-01-07T07:37:52;96469.00;;;0.95;100.00
49515;BME280;35415;47.870;16.058;2024-01-07T07:40:19;96479.00;;;0.93;100.00
49515;BME280;35415;47.870;16.058;2024-01-07T07:42:47;96482.34;;;0.88;100.00
49515;BME280;35415;47.870;16.058;2024-01-07T07:45:15;96490.50;;;0.86;100.00
49515;BME280;35415;47.870;16.058;2024-01-07T07:47:44;96483.59;;;0.85;100.00
49515;BME280;35415;47.870;16.058;2024-01-07T07:50:12;96497.25;;;0.82;100.00
49515;BME280;35415;47.870;16.058;2024-01-07T07:52:41;96486.31;;;0.79;100.00
49515;BME280;35415;47.870;16.058;2024-01-07T07:55:09;96453.66;;;0.55;100.00
49515;BME280;35415;47.870;16.058;2024-01-07T07:57:37;96447.22;;;0.51;100.00
49515;BME280;35415;47.870;16.058;2024-01-07T08:00:06;96445.09;;;0.41;100.00
49515;BME280;35415;47.870;16.058;2024-01-07T08:02:33;96502.53;;;0.71;100.00
49515;BME280;35415;47.870;16.058;2024-01-07T08:05:01;96495.63;;;0.70;100.00
49515;BME280;35415;47.870;16.058;2024-01-07T08:07:29;96485.31;;;0.62;100.00
49515;BME280;35415;47.870;16.058;2024-01-07T08:09:58;96459.00;;;0.37;100.00
49515;BME280;35415;47.870;16.058;2024-01-07T08:12:26;96508.09;;;0.63;100.00
49515;BME280;35415;47.870;16.058;2024-01-07T08:14:54;96511.56;;;0.63;100.00
49515;BME280;35415;47.870;16.058;2024-01-07T08:17:21;96468.09;;;0.41;100.00
49515;BME280;35415;47.870;16.058;2024-01-07T08:19:49;96501.34;;;0.67;100.00
49515;BME280;35415;47.870;16.058;2024-01-07T08:22:16;96486.03;;;0.39;100.00
49515;BME280;35415;47.870;16.058;2024-01-07T08:24:44;96522.16;;;0.63;100.00
49515;BME280;35415;47.870;16.058;2024-01-07T08:27:13;96493.59;;;0.35;100.00
49515;BME280;35415;47.870;16.058;2024-01-07T08:29:42;96509.75;;;0.45;100.00
49515;BME280;35415;47.870;16.058;2024-01-07T08:32:11;96486.53;;;0.29;100.00
49515;BME280;35415;47.870;16.058;2024-01-07T08:34:39;96536.16;;;0.52;100.00
49515;BME280;35415;47.870;16.058;2024-01-07T08:37:07;96500.13;;;0.33;100.00
49515;BME280;35415;47.870;16.058;2024-01-07T08:39:35;96529.88;;;0.46;100.00
49515;BME280;35415;47.870;16.058;2024-01-07T08:42:03;96495.38;;;0.23;100.00
49515;BME280;35415;47.870;16.058;2024-01-07T08:44:32;96535.47;;;0.38;100.00
49515;BME280;35415;47.870;16.058;2024-01-07T08:47:00;96532.31;;;0.48;100.00
49515;BME280;35415;47.870;16.058;2024-01-07T08:49:28;96503.66;;;0.26;100.00
49515;BME280;35415;47.870;16.058;2024-01-07T08:51:55;96531.28;;;0.49;100.00
49515;BME280;35415;47.870;16.058;2024-01-07T08:54:23;96516.38;;;0.36;100.00
49515;BME280;35415;47.870;16.058;2024-01-07T08:56:51;96545.69;;;0.53;100.00
49515;BME280;35415;47.870;16.058;2024-01-07T08:59:18;96523.19;;;0.44;100.00
49515;BME280;35415;47.870;16.058;2024-01-07T09:01:48;96500.66;;;0.23;100.00
49515;BME280;35415;47.870;16.058;2024-01-07T09:04:14;96550.19;;;0.52;100.00
49515;BME280;35415;47.870;16.058;2024-01-07T09:06:43;96526.78;;;0.31;100.00
49515;BME280;35415;47.870;16.058;2024-01-07T09:09:11;96521.50;;;0.31;100.00
49515;BME280;35415;47.870;16.058;2024-01-07T09:11:38;96566.19;;;0.57;100.00
49515;BME280;35415;47.870;16.058;2024-01-07T09:14:06;96566.78;;;0.59;100.00
49515;BME280;35415;47.870;16.058;2024-01-07T09:16:34;96550.78;;;0.54;100.00
49515;BME280;35415;47.870;16.058;2024-01-07T09:19:03;96537.31;;;0.38;100.00
49515;BME280;35415;47.870;16.058;2024-01-07T09:21:30;96565.06;;;0.65;100.00
49515;BME280;35415;47.870;16.058;2024-01-07T09:23:58;96499.41;;;0.25;100.00
49515;BME280;35415;47.870;16.058;2024-01-07T09:26:26;96547.34;;;0.66;100.00
49515;BME280;35415;47.870;16.058;2024-01-07T09:28:55;96559.50;;;0.73;100.00
49515;BME280;35415;47.870;16.058;2024-01-07T09:31:22;96543.63;;;0.73;100.00
49515;BME280;35415;47.870;16.058;2024-01-07T09:33:50;96497.41;;;0.39;100.00
49515;BME280;35415;47.870;16.058;2024-01-07T09:36:19;96532.47;;;0.53;100.00
49515;BME280;35415;47.870;16.058;2024-01-07T09:38:47;96552.50;;;0.79;99.58
49515;BME280;35415;47.870;16.058;2024-01-07T09:41:14;96558.59;;;0.79;99.32
49515;BME280;35415;47.870;16.058;2024-01-07T09:43:42;96536.78;;;0.66;99.27
49515;BME280;35415;47.870;16.058;2024-01-07T09:46:10;96558.38;;;0.81;98.63
49515;BME280;35415;47.870;16.058;2024-01-07T09:48:37;96554.47;;;0.83;99.16
49515;BME280;35415;47.870;16.058;2024-01-07T09:51:08;96575.66;;;0.83;99.17
49515;BME280;35415;47.870;16.058;2024-01-07T09:53:39;96566.09;;;0.82;98.94
49515;BME280;35415;47.870;16.058;2024-01-07T09:56:12;96564.06;;;0.84;98.78
49515;BME280;35415;47.870;16.058;2024-01-07T09:58:41;96498.22;;;0.40;98.20
49515;BME280;35415;47.870;16.058;2024-01-07T10:01:10;96527.44;;;0.63;98.72
49515;BME280;35415;47.870;16.058;2024-01-07T10:03:37;96522.16;;;0.63;98.07
49515;BME280;35415;47.870;16.058;2024-01-07T10:06:05;96532.72;;;0.63;97.78
49515;BME280;35415;47.870;16.058;2024-01-07T10:08:33;96556.97;;;0.78;96.68
49515;BME280;35415;47.870;16.058;2024-01-07T10:11:03;96560.56;;;0.84;96.78
49515;BME280;35415;47.870;16.058;2024-01-07T10:13:30;96556.75;;;0.80;97.16
49515;BME280;35415;47.870;16.058;2024-01-07T10:15:58;96546.25;;;0.73;95.56
49515;BME280;35415;47.870;16.058;2024-01-07T10:18:26;96535.97;;;0.65;95.97
49515;BME280;35415;47.870;16.058;2024-01-07T10:20:53;96559.75;;;0.83;94.34
49515;BME280;35415;47.870;16.058;2024-01-07T10:23:21;96513.94;;;0.53;94.81
49515;BME280;35415;47.870;16.058;2024-01-07T10:25:49;96561.81;;;0.81;94.84
49515;BME280;35415;47.870;16.058;2024-01-07T10:28:18;96556.19;;;0.78;93.28
49515;BME280;35415;47.870;16.058;2024-01-07T10:30:49;96516.81;;;0.51;93.49
49515;BME280;35415;47.870;16.058;2024-01-07T10:33:17;96565.50;;;0.80;92.72
49515;BME280;35415;47.870;16.058;2024-01-07T10:35:51;96552.94;;;0.76;91.57
49515;BME280;35415;47.870;16.058;2024-01-07T10:38:20;96526.94;;;0.54;91.23
49515;BME280;35415;47.870;16.058;2024-01-07T10:40:48;96537.31;;;0.56;89.95
49515;BME280;35415;47.870;16.058;2024-01-07T10:43:19;96565.16;;;0.77;90.70
49515;BME280;35415;47.870;16.058;2024-01-07T10:45:47;96562.59;;;0.70;90.83
49515;BME280;35415;47.870;16.058;2024-01-07T10:48:17;96563.19;;;0.72;90.89
49515;BME280;35415;47.870;16.058;2024-01-07T10:51:04;96514.22;;;0.45;90.96
49515;BME280;35415;47.870;16.058;2024-01-07T10:53:34;96537.75;;;0.53;89.65
49515;BME280;35415;47.870;16.058;2024-01-07T10:56:03;96524.59;;;0.46;90.06
49515;BME280;35415;47.870;16.058;2024-01-07T10:58:36;96569.94;;;0.68;91.08
49515;BME280;35415;47.870;16.058;2024-01-07T11:01:05;96543.06;;;0.53;91.02
49515;BME280;35415;47.870;16.058;2024-01-07T11:03:40;96484.25;;;0.14;91.82
49515;BME280;35415;47.870;16.058;2024-01-07T11:06:14;96550.09;;;0.59;92.14
49515;BME280;35415;47.870;16.058;2024-01-07T11:08:52;96566.28;;;0.69;92.29
49515;BME280;35415;47.870;16.058;2024-01-07T11:11:26;96544.91;;;0.52;92.80
49515;BME280;35415;47.870;16.058;2024-01-07T11:13:56;96513.16;;;0.34;93.30
49515;BME280;35415;47.870;16.058;2024-01-07T11:16:43;96558.63;;;0.61;93.77
49515;BME280;35415;47.870;16.058;2024-01-07T11:19:13;96510.69;;;0.33;93.16
49515;BME280;35415;47.870;16.058;2024-01-07T11:21:41;96552.97;;;0.57;92.50
49515;BME280;35415;47.870;16.058;2024-01-07T11:24:09;96546.50;;;0.53;93.39
49515;BME280;35415;47.870;16.058;2024-01-07T11:26:36;96543.06;;;0.53;92.21
49515;BME280;35415;47.870;16.058;2024-01-07T11:29:08;96561.03;;;0.63;91.08
49515;BME280;35415;47.870;16.058;2024-01-07T11:31:46;96564.28;;;0.65;90.33
49515;BME280;35415;47.870;16.058;2024-01-07T11:34:41;96543.41;;;0.38;90.38
49515;BME280;35415;47.870;16.058;2024-01-07T11:37:11;96530.19;;;0.38;87.29
49515;BME280;35415;47.870;16.058;2024-01-07T11:39:39;96562.28;;;0.60;89.06
49515;BME280;35415;47.870;16.058;2024-01-07T11:42:09;96564.94;;;0.60;89.90
49515;BME280;35415;47.870;16.058;2024-01-07T11:44:44;96580.59;;;0.62;89.29
49515;BME280;35415;47.870;16.058;2024-01-07T11:47:12;96571.63;;;0.63;88.33
49515;BME280;35415;47.870;16.058;2024-01-07T11:49:39;96570.00;;;0.62;88.19
49515;BME280;35415;47.870;16.058;2024-01-07T11:52:07;96570.81;;;0.62;89.15
49515;BME280;35415;47.870;16.058;2024-01-07T11:54:36;96563.91;;;0.61;88.55
49515;BME280;35415;47.870;16.058;2024-01-07T11:57:04;96549.38;;;0.52;88.77
49515;BME280;35415;47.870;16.058;2024-01-07T11:59:32;96564.94;;;0.60;88.06
49515;BME280;35415;47.870;16.058;2024-01-07T12:02:02;96566.19;;;0.57;87.98
49515;BME280;35415;47.870;16.058;2024-01-07T12:04:30;96554.06;;;0.50;88.33
49515;BME280;35415;47.870;16.058;2024-01-07T12:06:58;96557.50;;;0.50;88.75
49515;BME280;35415;47.870;16.058;2024-01-07T12:09:26;96526.00;;;0.30;87.50
49515;BME280;35415;47.870;16.058;2024-01-07T12:11:54;96567.72;;;0.65;87.23
49515;BME280;35415;47.870;16.058;2024-01-07T12:14:22;96528.63;;;0.30;87.01
49515;BME280;35415;47.870;16.058;2024-01-07T12:16:50;96533.28;;;0.35;87.26
49515;BME280;35415;47.870;16.058;2024-01-07T12:19:19;96531.69;;;0.34;87.25
49515;BME280;35415;47.870;16.058;2024-01-07T12:21:48;96572.06;;;0.59;87.48
49515;BME280;35415;47.870;16.058;2024-01-07T12:24:17;96561.19;;;0.49;87.52
49515;BME280;35415;47.870;16.058;2024-01-07T12:26:45;96573.56;;;0.55;86.86
49515;BME280;35415;47.870;16.058;2024-01-07T12:29:13;96583.56;;;0.53;87.86
49515;BME280;35415;47.870;16.058;2024-01-07T12:31:41;96581.13;;;0.52;86.74
49515;BME280;35415;47.870;16.058;2024-01-07T12:34:10;96497.66;;;0.01;87.38
49515;BME280;35415;47.870;16.058;2024-01-07T12:36:38;96533.69;;;0.14;87.08
49515;BME280;35415;47.870;16.058;2024-01-07T12:39:06;96590.28;;;0.49;87.11
49515;BME280;35415;47.870;16.058;2024-01-07T12:41:34;96555.38;;;0.22;86.61
49515;BME280;35415;47.870;16.058;2024-01-07T12:44:01;96542.53;;;0.26;85.08
49515;BME280;35415;47.870;16.058;2024-01-07T12:46:29;96541.72;;;0.07;86.17
49515;BME280;35415;47.870;16.058;2024-01-07T12:48:57;96557.94;;;0.11;86.93
49515;BME280;35415;47.870;16.058;2024-01-07T12:51:24;96563.75;;;0.19;86.55
49515;BME280;35415;47.870;16.058;2024-01-07T12:53:54;96569.66;;;0.21;86.13
49515;BME280;35415;47.870;16.058;2024-01-07T12:56:22;96590.88;;;0.33;86.38
49515;BME280;35415;47.870;16.058;2024-01-07T12:58:50;96608.31;;;0.41;85.56